PWSweather.com
Personal Weather Stations
Station Observations
KCOBLACK1
Chalet Park, Black Hawk, CO 80422

Chalet ParkBlack Hawk, CO 80422

Lat: 39.8294, Lon: -105.48

Elevation: 9370

Station Type: Vantage Pro2

http://www.oscaranddeb.com/weather

Latest ConditionsUpdated 4:05:07 AM MDT Tuesday, Sep 30, 2014
Currently Today's Max Today's Min Today's Average
Temperature 37.1°F2.8°C 38.3°F3.5°C 36.8°F2.7°C 37.6°F3.1°C
Dew Point 29.2°F-1.6°C 29.9°F-1.2°C 26.7°F-2.9°C 28.0°F-2.2°C
Winds 9.0 mph NW14.5 kmh NW 26.0 mph SW41.8 kmh SW - 10.9 mph 17.5 kmh
Wind Gusts 27.0 mph43.5 kmh 39.0 mph62.8 kmh - -
Humidity 73% 74% 64% 68%
Pressure 29.63 in1003.4 mb 29.66 in1004.4 mb 29.62 in1003.0 mb -
Hour Temp Dew Point Humidity Winds Wind Gusts Pressure Precip Precip Rate Daily Precip Total
04:05 AM 37.1°F2.8°C 29.2°F-1.6°C 73% 9.0 mph NW14.5 kmh NW 27.0 mph43.5 kmh 29.63 in1003.4 mb 0.00 in0.0 mm 0.00 in/hr0.0 mm/hr 0.00 in0.0 mm
04:00 AM 36.8°F2.7°C 28.6°F-1.9°C 72% 18.0 mph SW29.0 kmh SW 18.0 mph29.0 kmh 29.63 in1003.4 mb 0.00 in0.0 mm 0.00 in/hr0.0 mm/hr 0.00 in0.0 mm
03:55 AM 36.8°F2.7°C 29.3°F-1.5°C 74% 10.0 mph SW16.1 kmh SW 27.0 mph43.5 kmh 29.62 in1003.0 mb 0.00 in0.0 mm 0.00 in/hr0.0 mm/hr 0.00 in0.0 mm
03:50 AM 36.9°F2.7°C 28.7°F-1.8°C 72% 9.0 mph SW14.5 kmh SW 21.0 mph33.8 kmh 29.62 in1003.0 mb 0.00 in0.0 mm 0.00 in/hr0.0 mm/hr 0.00 in0.0 mm
03:45 AM 36.9°F2.7°C 29.0°F-1.7°C 73% 7.0 mph WSW11.3 kmh WSW 23.0 mph37.0 kmh 29.63 in1003.4 mb 0.00 in0.0 mm 0.00 in/hr0.0 mm/hr 0.00 in0.0 mm
03:40 AM 36.8°F2.7°C 28.9°F-1.7°C 73% 4.0 mph SW6.4 kmh SW 21.0 mph33.8 kmh 29.63 in1003.4 mb 0.00 in0.0 mm 0.00 in/hr0.0 mm/hr 0.00 in0.0 mm
03:35 AM 36.8°F2.7°C 28.9°F-1.7°C 73% 5.0 mph S8.0 kmh S 27.0 mph43.5 kmh 29.63 in1003.4 mb 0.00 in0.0 mm 0.00 in/hr0.0 mm/hr 0.00 in0.0 mm
03:30 AM 37.0°F2.8°C 28.8°F-1.8°C 72% 7.0 mph SW11.3 kmh SW 16.0 mph25.7 kmh 29.64 in1003.7 mb 0.00 in0.0 mm 0.00 in/hr0.0 mm/hr 0.00 in0.0 mm
03:25 AM 37.1°F2.8°C 28.5°F-1.9°C 71% 11.0 mph WSW17.7 kmh WSW 21.0 mph33.8 kmh 29.64 in1003.7 mb 0.00 in0.0 mm 0.00 in/hr0.0 mm/hr 0.00 in0.0 mm
03:20 AM 37.1°F2.8°C 28.5°F-1.9°C 71% 10.0 mph WSW16.1 kmh WSW 22.0 mph35.4 kmh 29.63 in1003.4 mb 0.00 in0.0 mm 0.00 in/hr0.0 mm/hr 0.00 in0.0 mm
03:15 AM 37.3°F2.9°C 28.4°F-2.0°C 70% 16.0 mph SW25.7 kmh SW 37.0 mph59.5 kmh 29.62 in1003.0 mb 0.00 in0.0 mm 0.00 in/hr0.0 mm/hr 0.00 in0.0 mm
03:10 AM 37.6°F3.1°C 28.0°F-2.2°C 68% 15.0 mph SW24.1 kmh SW 34.0 mph54.7 kmh 29.62 in1003.0 mb 0.00 in0.0 mm 0.00 in/hr0.0 mm/hr 0.00 in0.0 mm
03:05 AM 37.5°F3.1°C 27.9°F-2.3°C 68% 14.0 mph SW22.5 kmh SW 18.0 mph29.0 kmh 29.64 in1003.7 mb 0.00 in0.0 mm 0.00 in/hr0.0 mm/hr 0.00 in0.0 mm
03:00 AM 37.6°F3.1°C 28.0°F-2.2°C 68% 3.0 mph WSW4.8 kmh WSW 26.0 mph41.8 kmh 29.65 in1004.1 mb 0.00 in0.0 mm 0.00 in/hr0.0 mm/hr 0.00 in0.0 mm
02:55 AM 37.7°F3.2°C 28.1°F-2.2°C 68% 11.0 mph W17.7 kmh W 20.0 mph32.2 kmh 29.64 in1003.7 mb 0.00 in0.0 mm 0.00 in/hr0.0 mm/hr 0.00 in0.0 mm
02:50 AM 37.5°F3.1°C 28.2°F-2.1°C 69% 18.0 mph SW29.0 kmh SW 26.0 mph41.8 kmh 29.64 in1003.7 mb 0.00 in0.0 mm 0.00 in/hr0.0 mm/hr 0.00 in0.0 mm
02:45 AM 37.6°F3.1°C 28.0°F-2.2°C 68% 12.0 mph SSW19.3 kmh SSW 17.0 mph27.4 kmh 29.64 in1003.7 mb 0.00 in0.0 mm 0.00 in/hr0.0 mm/hr 0.00 in0.0 mm
02:40 AM 37.2°F2.9°C 27.9°F-2.3°C 69% 11.0 mph SW17.7 kmh SW 18.0 mph29.0 kmh 29.64 in1003.7 mb 0.00 in0.0 mm 0.00 in/hr0.0 mm/hr 0.00 in0.0 mm
02:35 AM 37.4°F3.0°C 27.8°F-2.3°C 68% 9.0 mph SW14.5 kmh SW 11.0 mph17.7 kmh 29.63 in1003.4 mb 0.00 in0.0 mm 0.00 in/hr0.0 mm/hr 0.00 in0.0 mm
02:30 AM 37.8°F3.2°C 27.8°F-2.3°C 67% 4.0 mph WSW6.4 kmh WSW 20.0 mph32.2 kmh 29.64 in1003.7 mb 0.00 in0.0 mm 0.00 in/hr0.0 mm/hr 0.00 in0.0 mm
02:25 AM 37.8°F3.2°C 27.8°F-2.3°C 67% Calm Calm 28.0 mph45.1 kmh 29.64 in1003.7 mb 0.00 in0.0 mm 0.00 in/hr0.0 mm/hr 0.00 in0.0 mm
02:20 AM 37.7°F3.2°C 27.7°F-2.4°C 67% 18.0 mph SW29.0 kmh SW 27.0 mph43.5 kmh 29.63 in1003.4 mb 0.00 in0.0 mm 0.00 in/hr0.0 mm/hr 0.00 in0.0 mm
02:15 AM 37.7°F3.2°C 27.3°F-2.6°C 66% 2.0 mph SW3.2 kmh SW 14.0 mph22.5 kmh 29.64 in1003.7 mb 0.00 in0.0 mm 0.00 in/hr0.0 mm/hr 0.00 in0.0 mm
02:10 AM 38.0°F3.3°C 27.6°F-2.4°C 66% 3.0 mph WSW4.8 kmh WSW 32.0 mph51.5 kmh 29.64 in1003.7 mb 0.00 in0.0 mm 0.00 in/hr0.0 mm/hr 0.00 in0.0 mm
02:05 AM 38.3°F3.5°C 27.5°F-2.5°C 65% Calm Calm 39.0 mph62.8 kmh 29.64 in1003.7 mb 0.00 in0.0 mm 0.00 in/hr0.0 mm/hr 0.00 in0.0 mm
02:00 AM 37.9°F3.3°C 27.5°F-2.5°C 66% 19.0 mph SW30.6 kmh SW 29.0 mph46.7 kmh 29.63 in1003.4 mb 0.00 in0.0 mm 0.00 in/hr0.0 mm/hr 0.00 in0.0 mm
01:55 AM 37.8°F3.2°C 27.4°F-2.6°C 66% 13.0 mph SW20.9 kmh SW 20.0 mph32.2 kmh 29.64 in1003.7 mb 0.00 in0.0 mm 0.00 in/hr0.0 mm/hr 0.00 in0.0 mm
01:50 AM 37.5°F3.1°C 27.1°F-2.7°C 66% 17.0 mph W27.4 kmh W 18.0 mph29.0 kmh 29.64 in1003.7 mb 0.00 in0.0 mm 0.00 in/hr0.0 mm/hr 0.00 in0.0 mm
01:45 AM 37.6°F3.1°C 27.2°F-2.7°C 66% 9.0 mph NW14.5 kmh NW 14.0 mph22.5 kmh 29.64 in1003.7 mb 0.00 in0.0 mm 0.00 in/hr0.0 mm/hr 0.00 in0.0 mm
01:40 AM 37.8°F3.2°C 27.4°F-2.6°C 66% 10.0 mph W16.1 kmh W 17.0 mph27.4 kmh 29.63 in1003.4 mb 0.00 in0.0 mm 0.00 in/hr0.0 mm/hr 0.00 in0.0 mm
01:35 AM 37.9°F3.3°C 27.2°F-2.7°C 65% 6.0 mph WSW9.7 kmh WSW 25.0 mph40.2 kmh 29.63 in1003.4 mb 0.00 in0.0 mm 0.00 in/hr0.0 mm/hr 0.00 in0.0 mm
01:30 AM 37.8°F3.2°C 26.7°F-2.9°C 64% 16.0 mph WSW25.7 kmh WSW 23.0 mph37.0 kmh 29.63 in1003.4 mb 0.00 in0.0 mm 0.00 in/hr0.0 mm/hr 0.00 in0.0 mm
01:25 AM 37.6°F3.1°C 26.9°F-2.8°C 65% 5.0 mph WSW8.0 kmh WSW 21.0 mph33.8 kmh 29.63 in1003.4 mb 0.00 in0.0 mm 0.00 in/hr0.0 mm/hr 0.00 in0.0 mm
01:20 AM 38.0°F3.3°C 26.9°F-2.8°C 64% 10.0 mph WSW16.1 kmh WSW 38.0 mph61.2 kmh 29.62 in1003.0 mb 0.00 in0.0 mm 0.00 in/hr0.0 mm/hr 0.00 in0.0 mm
01:15 AM 37.7°F3.2°C 27.0°F-2.8°C 65% 22.0 mph WSW35.4 kmh WSW 39.0 mph62.8 kmh 29.62 in1003.0 mb 0.00 in0.0 mm 0.00 in/hr0.0 mm/hr 0.00 in0.0 mm
01:10 AM 37.8°F3.2°C 26.7°F-2.9°C 64% 10.0 mph W16.1 kmh W 20.0 mph32.2 kmh 29.62 in1003.0 mb 0.00 in0.0 mm 0.00 in/hr0.0 mm/hr 0.00 in0.0 mm
01:05 AM 37.8°F3.2°C 26.7°F-2.9°C 64% 7.0 mph WSW11.3 kmh WSW 27.0 mph43.5 kmh 29.62 in1003.0 mb 0.00 in0.0 mm 0.00 in/hr0.0 mm/hr 0.00 in0.0 mm
01:00 AM 37.8°F3.2°C 27.1°F-2.7°C 65% 16.0 mph WSW25.7 kmh WSW 28.0 mph45.1 kmh 29.62 in1003.0 mb 0.00 in0.0 mm 0.00 in/hr0.0 mm/hr 0.00 in0.0 mm
12:55 AM 37.8°F3.2°C 26.7°F-2.9°C 64% 17.0 mph SW27.4 kmh SW 27.0 mph43.5 kmh 29.62 in1003.0 mb 0.00 in0.0 mm 0.00 in/hr0.0 mm/hr 0.00 in0.0 mm
12:50 AM 37.7°F3.2°C 27.0°F-2.8°C 65% 26.0 mph SW41.8 kmh SW 29.0 mph46.7 kmh 29.63 in1003.4 mb 0.00 in0.0 mm 0.00 in/hr0.0 mm/hr 0.00 in0.0 mm
12:45 AM 37.9°F3.3°C 26.8°F-2.9°C 64% 14.0 mph WSW22.5 kmh WSW 29.0 mph46.7 kmh 29.63 in1003.4 mb 0.00 in0.0 mm 0.00 in/hr0.0 mm/hr 0.00 in0.0 mm
12:40 AM 37.7°F3.2°C 27.3°F-2.6°C 66% 11.0 mph W17.7 kmh W 30.0 mph48.3 kmh 29.64 in1003.7 mb 0.00 in0.0 mm 0.00 in/hr0.0 mm/hr 0.00 in0.0 mm
12:35 AM 37.8°F3.2°C 27.8°F-2.3°C 67% 18.0 mph W29.0 kmh W 26.0 mph41.8 kmh 29.63 in1003.4 mb 0.00 in0.0 mm 0.00 in/hr0.0 mm/hr 0.00 in0.0 mm
12:30 AM 38.2°F3.4°C 28.2°F-2.1°C 67% 17.0 mph WSW27.4 kmh WSW 34.0 mph54.7 kmh 29.64 in1003.7 mb 0.00 in0.0 mm 0.00 in/hr0.0 mm/hr 0.00 in0.0 mm
12:25 AM 38.1°F3.4°C 28.4°F-2.0°C 68% 11.0 mph WSW17.7 kmh WSW 32.0 mph51.5 kmh 29.64 in1003.7 mb 0.00 in0.0 mm 0.00 in/hr0.0 mm/hr 0.00 in0.0 mm
12:20 AM 37.7°F3.2°C 28.8°F-1.8°C 70% 6.0 mph W9.7 kmh W 26.0 mph41.8 kmh 29.65 in1004.1 mb 0.00 in0.0 mm 0.00 in/hr0.0 mm/hr 0.00 in0.0 mm
12:15 AM 37.5°F3.1°C 29.6°F-1.3°C 73% 8.0 mph NNW12.9 kmh NNW 19.0 mph30.6 kmh 29.66 in1004.4 mb 0.00 in0.0 mm 0.00 in/hr0.0 mm/hr 0.00 in0.0 mm
12:10 AM 37.5°F3.1°C 29.9°F-1.2°C 74% 7.0 mph WSW11.3 kmh WSW 16.0 mph25.7 kmh 29.65 in1004.1 mb 0.00 in0.0 mm 0.00 in/hr0.0 mm/hr 0.00 in0.0 mm
12:05 AM 37.8°F3.2°C 29.5°F-1.4°C 72% 7.0 mph WSW11.3 kmh WSW 16.0 mph25.7 kmh 29.66 in1004.4 mb 0.00 in0.0 mm 0.00 in/hr0.0 mm/hr 0.00 in0.0 mm
12:00 AM 37.7°F3.2°C 29.8°F-1.2°C 73% 16.0 mph SW25.7 kmh SW 24.0 mph38.6 kmh 29.66 in1004.4 mb 0.00 in0.0 mm 0.00 in/hr0.0 mm/hr 0.40 in10.2 mm